sensor_id;sensor_type;location;lat;lon;timestamp;pressure;altitude;pressure_sealevel;temperature;humidity
32747;BME280;19118;50.860;13.662;2023-08-06T00:03:16;96190.91;;;14.98;100.00
32747;BME280;19118;50.860;13.662;2023-08-06T00:08:16;96181.63;;;15.01;100.00
32747;BME280;19118;50.860;13.662;2023-08-06T00:13:16;96166.16;;;14.98;100.00
32747;BME280;19118;50.860;13.662;2023-08-06T00:18:17;96164.44;;;14.92;100.00
32747;BME280;19118;50.860;13.662;2023-08-06T00:23:17;96157.91;;;14.99;100.00
32747;BME280;19118;50.860;13.662;2023-08-06T00:28:18;96160.06;;;15.02;100.00
32747;BME280;19118;50.860;13.662;2023-08-06T00:33:18;96163.53;;;15.03;100.00
32747;BME280;19118;50.860;13.662;2023-08-06T00:38:19;96159.63;;;14.89;100.00
32747;BME280;19118;50.860;13.662;2023-08-06T00:43:19;96150.44;;;14.79;100.00
32747;BME280;19118;50.860;13.662;2023-08-06T00:48:20;96132.31;;;14.76;100.00
32747;BME280;19118;50.860;13.662;2023-08-06T00:53:20;96130.13;;;14.73;100.00
32747;BME280;19118;50.860;13.662;2023-08-06T00:58:21;96115.28;;;14.77;100.00
32747;BME280;19118;50.860;13.662;2023-08-06T01:03:21;96109.22;;;14.82;100.00
32747;BME280;19118;50.860;13.662;2023-08-06T01:13:47;96106.19;;;14.73;100.00
32747;BME280;19118;50.860;13.662;2023-08-06T01:18:49;96106.75;;;14.75;100.00
32747;BME280;19118;50.860;13.662;2023-08-06T01:23:50;96095.53;;;14.73;100.00
32747;BME280;19118;50.860;13.662;2023-08-06T01:34:17;96109.97;;;14.61;100.00
32747;BME280;19118;50.860;13.662;2023-08-06T01:39:20;96098.06;;;14.63;100.00
32747;BME280;19118;50.860;13.662;2023-08-06T01:44:23;96087.88;;;14.60;100.00
32747;BME280;19118;50.860;13.662;2023-08-06T01:49:24;96095.00;;;14.54;100.00
32747;BME280;19118;50.860;13.662;2023-08-06T01:54:24;96082.69;;;14.70;100.00
32747;BME280;19118;50.860;13.662;2023-08-06T01:59:24;96093.69;;;14.74;100.00
32747;BME280;19118;50.860;13.662;2023-08-06T02:04:25;96082.28;;;14.78;100.00
32747;BME280;19118;50.860;13.662;2023-08-06T02:09:25;96089.53;;;14.83;100.00
32747;BME280;19118;50.860;13.662;2023-08-06T02:14:26;96092.81;;;14.90;100.00
32747;BME280;19118;50.860;13.662;2023-08-06T02:19:26;96082.91;;;14.85;100.00
32747;BME280;19118;50.860;13.662;2023-08-06T02:24:27;96077.22;;;14.99;100.00
32747;BME280;19118;50.860;13.662;2023-08-06T02:29:27;96077.03;;;15.05;100.00
32747;BME280;19118;50.860;13.662;2023-08-06T02:34:28;96074.56;;;14.99;100.00
32747;BME280;19118;50.860;13.662;2023-08-06T02:39:28;96064.34;;;14.91;100.00
32747;BME280;19118;50.860;13.662;2023-08-06T02:44:28;96060.63;;;14.92;100.00
32747;BME280;19118;50.860;13.662;2023-08-06T02:49:29;96053.06;;;15.05;100.00
32747;BME280;19118;50.860;13.662;2023-08-06T02:54:30;96053.88;;;15.06;100.00
32747;BME280;19118;50.860;13.662;2023-08-06T02:59:31;96047.13;;;14.98;100.00
32747;BME280;19118;50.860;13.662;2023-08-06T03:04:58;96037.16;;;14.89;100.00
32747;BME280;19118;50.860;13.662;2023-08-06T03:10:03;96033.06;;;14.81;100.00
32747;BME280;19118;50.860;13.662;2023-08-06T03:15:04;96033.56;;;14.78;100.00
32747;BME280;19118;50.860;13.662;2023-08-06T03:20:06;96037.34;;;14.82;100.00
32747;BME280;19118;50.860;13.662;2023-08-06T03:25:08;96035.44;;;14.77;100.00
32747;BME280;19118;50.860;13.662;2023-08-06T03:30:10;96031.72;;;14.78;100.00
32747;BME280;19118;50.860;13.662;2023-08-06T03:35:12;96013.88;;;14.79;100.00
32747;BME280;19118;50.860;13.662;2023-08-06T03:40:13;96004.00;;;14.74;100.00
32747;BME280;19118;50.860;13.662;2023-08-06T03:45:13;96001.59;;;14.73;100.00
32747;BME280;19118;50.860;13.662;2023-08-06T03:50:16;95993.69;;;14.83;100.00
32747;BME280;19118;50.860;13.662;2023-08-06T03:55:18;95985.63;;;14.73;100.00
32747;BME280;19118;50.860;13.662;2023-08-06T04:00:18;95976.75;;;14.67;100.00
32747;BME280;19118;50.860;13.662;2023-08-06T04:05:24;95967.69;;;14.63;100.00
32747;BME280;19118;50.860;13.662;2023-08-06T04:10:25;95973.59;;;14.70;100.00
32747;BME280;19118;50.860;13.662;2023-08-06T04:15:25;95961.41;;;14.74;100.00
32747;BME280;19118;50.860;13.662;2023-08-06T04:20:26;95960.63;;;14.74;100.00
32747;BME280;19118;50.860;13.662;2023-08-06T04:25:26;95951.72;;;14.90;100.00
32747;BME280;19118;50.860;13.662;2023-08-06T04:30:27;95942.97;;;14.95;100.00
32747;BME280;19118;50.860;13.662;2023-08-06T04:35:27;95938.50;;;14.95;100.00
32747;BME280;19118;50.860;13.662;2023-08-06T04:40:28;95941.19;;;15.00;100.00
32747;BME280;19118;50.860;13.662;2023-08-06T04:45:29;95938.66;;;14.89;100.00
32747;BME280;19118;50.860;13.662;2023-08-06T04:50:29;95928.28;;;14.87;100.00
32747;BME280;19118;50.860;13.662;2023-08-06T04:55:29;95923.91;;;15.03;100.00
32747;BME280;19118;50.860;13.662;2023-08-06T05:00:30;95913.31;;;15.08;100.00
32747;BME280;19118;50.860;13.662;2023-08-06T05:05:30;95912.03;;;15.15;100.00
32747;BME280;19118;50.860;13.662;2023-08-06T05:10:31;95909.59;;;15.09;100.00
32747;BME280;19118;50.860;13.662;2023-08-06T05:15:31;95913.88;;;15.15;100.00
32747;BME280;19118;50.860;13.662;2023-08-06T05:20:36;95906.72;;;15.15;100.00
32747;BME280;19118;50.860;13.662;2023-08-06T05:25:37;95907.03;;;15.19;100.00
32747;BME280;19118;50.860;13.662;2023-08-06T05:30:41;95898.47;;;15.17;100.00
32747;BME280;19118;50.860;13.662;2023-08-06T05:35:41;95887.44;;;15.35;100.00
32747;BME280;19118;50.860;13.662;2023-08-06T05:40:42;95875.63;;;15.26;100.00
32747;BME280;19118;50.860;13.662;2023-08-06T05:45:46;95868.78;;;15.35;100.00
32747;BME280;19118;50.860;13.662;2023-08-06T05:50:49;95874.13;;;15.35;100.00
32747;BME280;19118;50.860;13.662;2023-08-06T05:55:50;95877.50;;;15.26;100.00
32747;BME280;19118;50.860;13.662;2023-08-06T06:00:51;95871.53;;;15.46;100.00
32747;BME280;19118;50.860;13.662;2023-08-06T06:05:51;95871.53;;;15.46;100.00
32747;BME280;19118;50.860;13.662;2023-08-06T06:10:52;95865.25;;;15.62;100.00
32747;BME280;19118;50.860;13.662;2023-08-06T06:15:55;95865.31;;;15.72;100.00
32747;BME280;19118;50.860;13.662;2023-08-06T06:20:56;95862.19;;;15.85;100.00
32747;BME280;19118;50.860;13.662;2023-08-06T06:25:56;95854.25;;;15.95;100.00
32747;BME280;19118;50.860;13.662;2023-08-06T06:31:03;95855.81;;;15.86;100.00
32747;BME280;19118;50.860;13.662;2023-08-06T06:36:04;95845.19;;;15.91;100.00
32747;BME280;19118;50.860;13.662;2023-08-06T06:41:04;95855.63;;;16.03;100.00
32747;BME280;19118;50.860;13.662;2023-08-06T06:46:05;95848.47;;;16.14;100.00
32747;BME280;19118;50.860;13.662;2023-08-06T06:51:05;95838.88;;;16.13;100.00
32747;BME280;19118;50.860;13.662;2023-08-06T06:56:06;95846.41;;;16.31;100.00
32747;BME280;19118;50.860;13.662;2023-08-06T07:01:08;95850.06;;;16.10;100.00
32747;BME280;19118;50.860;13.662;2023-08-06T07:06:10;95858.66;;;16.22;100.00
32747;BME280;19118;50.860;13.662;2023-08-06T07:11:11;95849.50;;;15.97;100.00
32747;BME280;19118;50.860;13.662;2023-08-06T07:16:11;95862.38;;;15.68;100.00
32747;BME280;19118;50.860;13.662;2023-08-06T07:21:12;95866.63;;;15.64;100.00
32747;BME280;19118;50.860;13.662;2023-08-06T07:26:12;95863.00;;;15.49;100.00
32747;BME280;19118;50.860;13.662;2023-08-06T07:31:12;95860.84;;;15.83;100.00
32747;BME280;19118;50.860;13.662;2023-08-06T07:36:14;95856.03;;;15.80;100.00
32747;BME280;19118;50.860;13.662;2023-08-06T07:41:14;95846.38;;;16.26;100.00
32747;BME280;19118;50.860;13.662;2023-08-06T07:46:15;95840.31;;;16.51;100.00
32747;BME280;19118;50.860;13.662;2023-08-06T07:51:15;95832.41;;;16.81;100.00
32747;BME280;19118;50.860;13.662;2023-08-06T07:56:15;95841.78;;;16.89;100.00
32747;BME280;19118;50.860;13.662;2023-08-06T08:01:16;95836.88;;;16.55;100.00
32747;BME280;19118;50.860;13.662;2023-08-06T08:06:16;95833.66;;;16.48;100.00
32747;BME280;19118;50.860;13.662;2023-08-06T08:11:17;95838.00;;;16.70;100.00
32747;BME280;19118;50.860;13.662;2023-08-06T08:16:18;95835.75;;;16.41;100.00
32747;BME280;19118;50.860;13.662;2023-08-06T08:21:18;95819.97;;;16.29;100.00
32747;BME280;19118;50.860;13.662;2023-08-06T08:26:19;95819.75;;;16.36;100.00
32747;BME280;19118;50.860;13.662;2023-08-06T08:31:20;95810.09;;;16.25;100.00
32747;BME280;19118;50.860;13.662;2023-08-06T08:36:20;95811.13;;;16.09;100.00
32747;BME280;19118;50.860;13.662;2023-08-06T08:41:21;95810.78;;;15.95;100.00
32747;BME280;19118;50.860;13.662;2023-08-06T08:46:22;95808.88;;;15.85;100.00
32747;BME280;19118;50.860;13.662;2023-08-06T08:51:23;95794.59;;;16.12;100.00
32747;BME280;19118;50.860;13.662;2023-08-06T08:56:24;95787.47;;;16.38;100.00
32747;BME280;19118;50.860;13.662;2023-08-06T09:01:25;95789.34;;;16.42;100.00
32747;BME280;19118;50.860;13.662;2023-08-06T09:06:27;95792.03;;;16.63;100.00
32747;BME280;19118;50.860;13.662;2023-08-06T09:11:30;95787.25;;;17.36;100.00
32747;BME280;19118;50.860;13.662;2023-08-06T09:16:38;95788.25;;;17.81;100.00
32747;BME280;19118;50.860;13.662;2023-08-06T09:21:39;95787.13;;;17.87;100.00
32747;BME280;19118;50.860;13.662;2023-08-06T09:26:41;95778.09;;;17.67;100.00
32747;BME280;19118;50.860;13.662;2023-08-06T09:31:44;95783.41;;;17.78;100.00
32747;BME280;19118;50.860;13.662;2023-08-06T09:36:49;95778.06;;;17.83;100.00
32747;BME280;19118;50.860;13.662;2023-08-06T09:41:58;95775.38;;;17.88;100.00
32747;BME280;19118;50.860;13.662;2023-08-06T09:47:01;95769.81;;;17.79;100.00
32747;BME280;19118;50.860;13.662;2023-08-06T09:52:02;95759.31;;;17.93;100.00
32747;BME280;19118;50.860;13.662;2023-08-06T09:57:02;95758.66;;;18.11;100.00
32747;BME280;19118;50.860;13.662;2023-08-06T10:02:10;95755.84;;;18.42;100.00
32747;BME280;19118;50.860;13.662;2023-08-06T10:07:12;95750.22;;;17.94;100.00
32747;BME280;19118;50.860;13.662;2023-08-06T10:12:14;95739.47;;;18.48;100.00
32747;BME280;19118;50.860;13.662;2023-08-06T10:17:15;95746.06;;;19.53;100.00
32747;BME280;19118;50.860;13.662;2023-08-06T10:22:17;95737.59;;;19.17;100.00
32747;BME280;19118;50.860;13.662;2023-08-06T10:27:22;95734.50;;;19.82;100.00
32747;BME280;19118;50.860;13.662;2023-08-06T10:32:47;95736.38;;;19.57;100.00
32747;BME280;19118;50.860;13.662;2023-08-06T10:37:48;95732.16;;;18.64;100.00
32747;BME280;19118;50.860;13.662;2023-08-06T10:42:49;95727.38;;;19.72;100.00
32747;BME280;19118;50.860;13.662;2023-08-06T10:47:49;95718.09;;;20.07;100.00
32747;BME280;19118;50.860;13.662;2023-08-06T10:52:50;95719.25;;;20.39;100.00
32747;BME280;19118;50.860;13.662;2023-08-06T10:57:51;95715.56;;;19.73;100.00
32747;BME280;19118;50.860;13.662;2023-08-06T11:02:53;95701.56;;;20.19;100.00
32747;BME280;19118;50.860;13.662;2023-08-06T11:07:53;95699.44;;;19.97;100.00
32747;BME280;19118;50.860;13.662;2023-08-06T11:12:53;95705.97;;;20.47;100.00
32747;BME280;19118;50.860;13.662;2023-08-06T11:17:54;95697.19;;;20.23;100.00
32747;BME280;19118;50.860;13.662;2023-08-06T11:22:55;95690.50;;;19.35;100.00
32747;BME280;19118;50.860;13.662;2023-08-06T11:27:55;95695.53;;;19.65;100.00
32747;BME280;19118;50.860;13.662;2023-08-06T11:32:56;95690.00;;;19.57;100.00
32747;BME280;19118;50.860;13.662;2023-08-06T11:37:56;95695.91;;;19.54;100.00
32747;BME280;19118;50.860;13.662;2023-08-06T11:42:58;95686.47;;;19.37;100.00
32747;BME280;19118;50.860;13.662;2023-08-06T11:47:58;95687.06;;;19.77;100.00
32747;BME280;19118;50.860;13.662;2023-08-06T11:53:00;95686.50;;;19.80;100.00
32747;BME280;19118;50.860;13.662;2023-08-06T11:58:03;95683.97;;;19.89;100.00
32747;BME280;19118;50.860;13.662;2023-08-06T12:03:07;95684.50;;;20.10;100.00
32747;BME280;19118;50.860;13.662;2023-08-06T12:08:08;95678.63;;;21.10;100.00
32747;BME280;19118;50.860;13.662;2023-08-06T12:13:09;95671.09;;;20.93;100.00
32747;BME280;19118;50.860;13.662;2023-08-06T12:18:09;95674.09;;;21.66;100.00
32747;BME280;19118;50.860;13.662;2023-08-06T12:23:10;95674.72;;;21.16;100.00
32747;BME280;19118;50.860;13.662;2023-08-06T12:28:10;95671.47;;;21.61;100.00
32747;BME280;19118;50.860;13.662;2023-08-06T12:33:14;95678.88;;;20.95;100.00
32747;BME280;19118;50.860;13.662;2023-08-06T12:38:14;95673.75;;;20.80;100.00
32747;BME280;19118;50.860;13.662;2023-08-06T12:43:14;95672.44;;;21.23;100.00
32747;BME280;19118;50.860;13.662;2023-08-06T12:48:15;95667.25;;;21.00;100.00
32747;BME280;19118;50.860;13.662;2023-08-06T12:53:15;95667.16;;;20.72;100.00
32747;BME280;19118;50.860;13.662;2023-08-06T12:58:16;95663.69;;;21.18;100.00
32747;BME280;19118;50.860;13.662;2023-08-06T13:03:16;95660.22;;;21.72;100.00
32747;BME280;19118;50.860;13.662;2023-08-06T13:08:17;95668.72;;;21.06;100.00
32747;BME280;19118;50.860;13.662;2023-08-06T13:13:17;95667.31;;;21.68;100.00
32747;BME280;19118;50.860;13.662;2023-08-06T13:18:18;95665.84;;;21.02;100.00
32747;BME280;19118;50.860;13.662;2023-08-06T13:23:18;95664.31;;;21.29;100.00
32747;BME280;19118;50.860;13.662;2023-08-06T13:28:19;95657.72;;;21.07;100.00
32747;BME280;19118;50.860;13.662;2023-08-06T13:33:19;95659.03;;;21.78;100.00
32747;BME280;19118;50.860;13.662;2023-08-06T13:38:20;95659.66;;;20.88;100.00
32747;BME280;19118;50.860;13.662;2023-08-06T13:43:20;95660.00;;;20.68;100.00
32747;BME280;19118;50.860;13.662;2023-08-06T13:48:20;95652.28;;;20.80;100.00
32747;BME280;19118;50.860;13.662;2023-08-06T13:53:21;95642.00;;;20.68;100.00
32747;BME280;19118;50.860;13.662;2023-08-06T13:58:21;95657.09;;;21.10;100.00
32747;BME280;19118;50.860;13.662;2023-08-06T14:03:22;95651.56;;;21.48;100.00
32747;BME280;19118;50.860;13.662;2023-08-06T14:08:23;95656.16;;;21.34;96.13
32747;BME280;19118;50.860;13.662;2023-08-06T14:13:24;95652.13;;;21.72;94.24
32747;BME280;19118;50.860;13.662;2023-08-06T14:18:24;95653.31;;;21.11;100.00
32747;BME280;19118;50.860;13.662;2023-08-06T14:23:25;95649.75;;;19.99;100.00
32747;BME280;19118;50.860;13.662;2023-08-06T14:28:25;95650.31;;;19.77;100.00
32747;BME280;19118;50.860;13.662;2023-08-06T14:33:26;95641.09;;;20.02;100.00
32747;BME280;19118;50.860;13.662;2023-08-06T14:38:26;95647.50;;;19.88;100.00
32747;BME280;19118;50.860;13.662;2023-08-06T14:43:26;95647.22;;;19.89;100.00
32747;BME280;19118;50.860;13.662;2023-08-06T14:48:27;95656.88;;;20.28;100.00
32747;BME280;19118;50.860;13.662;2023-08-06T14:53:27;95649.25;;;20.68;100.00
32747;BME280;19118;50.860;13.662;2023-08-06T14:58:29;95659.31;;;21.08;100.00
32747;BME280;19118;50.860;13.662;2023-08-06T15:03:29;95658.94;;;21.29;100.00
32747;BME280;19118;50.860;13.662;2023-08-06T15:08:31;95661.34;;;21.44;100.00
32747;BME280;19118;50.860;13.662;2023-08-06T15:13:31;95665.66;;;21.12;100.00
32747;BME280;19118;50.860;13.662;2023-08-06T15:18:32;95666.13;;;21.47;100.00
32747;BME280;19118;50.860;13.662;2023-08-06T15:23:32;95663.09;;;21.90;99.59
32747;BME280;19118;50.860;13.662;2023-08-06T15:28:32;95660.16;;;22.14;86.53
32747;BME280;19118;50.860;13.662;2023-08-06T15:33:33;95648.31;;;22.01;82.68
32747;BME280;19118;50.860;13.662;2023-08-06T15:38:33;95660.75;;;21.97;81.27
32747;BME280;19118;50.860;13.662;2023-08-06T15:43:34;95649.09;;;22.15;81.28
32747;BME280;19118;50.860;13.662;2023-08-06T15:48:35;95651.16;;;21.68;86.17
32747;BME280;19118;50.860;13.662;2023-08-06T15:53:35;95652.63;;;21.74;83.82
32747;BME280;19118;50.860;13.662;2023-08-06T15:58:35;95652.50;;;22.43;82.42
32747;BME280;19118;50.860;13.662;2023-08-06T16:03:37;95646.47;;;22.24;80.05
32747;BME280;19118;50.860;13.662;2023-08-06T16:08:39;95649.41;;;22.00;82.77
32747;BME280;19118;50.860;13.662;2023-08-06T16:13:40;95641.09;;;22.24;80.96
32747;BME280;19118;50.860;13.662;2023-08-06T16:18:40;95649.97;;;22.47;83.31
32747;BME280;19118;50.860;13.662;2023-08-06T16:23:40;95649.53;;;22.31;80.92
32747;BME280;19118;50.860;13.662;2023-08-06T16:28:41;95654.84;;;22.22;83.81
32747;BME280;19118;50.860;13.662;2023-08-06T16:33:41;95659.47;;;21.94;87.25
32747;BME280;19118;50.860;13.662;2023-08-06T16:38:43;95649.38;;;21.50;92.51
32747;BME280;19118;50.860;13.662;2023-08-06T16:43:44;95648.38;;;21.32;94.49
32747;BME280;19118;50.860;13.662;2023-08-06T16:48:44;95637.00;;;21.21;97.15
32747;BME280;19118;50.860;13.662;2023-08-06T16:53:45;95639.19;;;21.19;96.67
32747;BME280;19118;50.860;13.662;2023-08-06T16:58:46;95633.19;;;20.95;97.21
32747;BME280;19118;50.860;13.662;2023-08-06T17:03:46;95624.56;;;20.66;99.81
32747;BME280;19118;50.860;13.662;2023-08-06T17:08:48;95627.19;;;20.00;100.00
32747;BME280;19118;50.860;13.662;2023-08-06T17:13:49;95614.25;;;19.22;100.00
32747;BME280;19118;50.860;13.662;2023-08-06T17:18:49;95601.59;;;19.04;100.00
32747;BME280;19118;50.860;13.662;2023-08-06T17:23:50;95600.97;;;18.59;100.00
32747;BME280;19118;50.860;13.662;2023-08-06T17:28:50;95637.31;;;17.97;100.00
32747;BME280;19118;50.860;13.662;2023-08-06T17:33:50;95628.09;;;17.64;100.00
32747;BME280;19118;50.860;13.662;2023-08-06T17:38:51;95627.53;;;17.77;100.00
32747;BME280;19118;50.860;13.662;2023-08-06T17:43:51;95636.94;;;17.64;100.00
32747;BME280;19118;50.860;13.662;2023-08-06T17:48:51;95640.31;;;17.21;100.00
32747;BME280;19118;50.860;13.662;2023-08-06T17:53:56;95635.34;;;16.83;100.00
32747;BME280;19118;50.860;13.662;2023-08-06T17:58:57;95625.75;;;16.57;100.00
32747;BME280;19118;50.860;13.662;2023-08-06T18:03:57;95711.59;;;15.30;100.00
32747;BME280;19118;50.860;13.662;2023-08-06T18:08:58;95741.63;;;21.04;100.00
32747;BME280;19118;50.860;13.662;2023-08-06T18:13:58;95694.28;;;20.57;100.00
32747;BME280;19118;50.860;13.662;2023-08-06T18:18:58;95676.88;;;18.00;100.00
32747;BME280;19118;50.860;13.662;2023-08-06T18:23:59;95680.63;;;17.29;100.00
32747;BME280;19118;50.860;13.662;2023-08-06T18:28:59;95697.56;;;16.89;100.00
32747;BME280;19118;50.860;13.662;2023-08-06T18:33:59;95706.63;;;17.03;100.00
32747;BME280;19118;50.860;13.662;2023-08-06T18:39:00;95718.66;;;16.96;100.00
32747;BME280;19118;50.860;13.662;2023-08-06T18:44:01;95729.53;;;17.30;100.00
32747;BME280;19118;50.860;13.662;2023-08-06T18:49:01;95729.06;;;16.87;100.00
32747;BME280;19118;50.860;13.662;2023-08-06T18:54:02;95726.09;;;17.09;100.00
32747;BME280;19118;50.860;13.662;2023-08-06T18:59:02;95735.97;;;16.63;100.00
32747;BME280;19118;50.860;13.662;2023-08-06T19:04:03;95734.91;;;16.64;100.00
32747;BME280;19118;50.860;13.662;2023-08-06T19:09:03;95746.16;;;16.66;100.00
32747;BME280;19118;50.860;13.662;2023-08-06T19:14:04;95749.34;;;16.57;100.00
32747;BME280;19118;50.860;13.662;2023-08-06T19:19:04;95756.22;;;15.55;100.00
32747;BME280;19118;50.860;13.662;2023-08-06T19:24:04;95778.16;;;15.72;100.00
32747;BME280;19118;50.860;13.662;2023-08-06T19:29:05;95803.91;;;14.82;100.00
32747;BME280;19118;50.860;13.662;2023-08-06T19:34:05;95818.91;;;15.26;100.00
32747;BME280;19118;50.860;13.662;2023-08-06T19:39:06;95818.19;;;14.71;100.00
32747;BME280;19118;50.860;13.662;2023-08-06T19:44:06;95816.78;;;14.91;100.00
32747;BME280;19118;50.860;13.662;2023-08-06T19:49:07;95798.91;;;14.86;100.00
32747;BME280;19118;50.860;13.662;2023-08-06T19:54:07;95801.06;;;14.89;100.00
32747;BME280;19118;50.860;13.662;2023-08-06T19:59:08;95798.69;;;14.93;100.00
32747;BME280;19118;50.860;13.662;2023-08-06T20:04:08;95815.25;;;14.68;100.00
32747;BME280;19118;50.860;13.662;2023-08-06T20:09:08;95807.97;;;14.36;100.00
32747;BME280;19118;50.860;13.662;2023-08-06T20:14:09;95806.25;;;14.47;100.00
32747;BME280;19118;50.860;13.662;2023-08-06T20:19:10;95800.53;;;14.60;100.00
32747;BME280;19118;50.860;13.662;2023-08-06T20:24:10;95800.88;;;14.69;100.00
32747;BME280;19118;50.860;13.662;2023-08-06T20:29:10;95803.00;;;14.99;100.00
32747;BME280;19118;50.860;13.662;2023-08-06T20:34:11;95797.59;;;14.89;100.00
32747;BME280;19118;50.860;13.662;2023-08-06T20:39:11;95795.56;;;15.01;100.00
32747;BME280;19118;50.860;13.662;2023-08-06T20:44:12;95792.91;;;15.06;100.00
32747;BME280;19118;50.860;13.662;2023-08-06T20:49:12;95791.00;;;15.33;100.00
32747;BME280;19118;50.860;13.662;2023-08-06T20:54:12;95776.31;;;14.89;100.00
32747;BME280;19118;50.860;13.662;2023-08-06T20:59:13;95754.72;;;14.85;100.00
32747;BME280;19118;50.860;13.662;2023-08-06T21:04:13;95766.81;;;15.03;100.00
32747;BME280;19118;50.860;13.662;2023-08-06T21:09:14;95751.63;;;14.98;100.00
32747;BME280;19118;50.860;13.662;2023-08-06T21:14:14;95743.13;;;15.01;100.00
32747;BME280;19118;50.860;13.662;2023-08-06T21:19:14;95740.31;;;15.23;100.00
32747;BME280;19118;50.860;13.662;2023-08-06T21:24:15;95743.00;;;15.23;100.00
32747;BME280;19118;50.860;13.662;2023-08-06T21:29:15;95745.06;;;15.16;100.00
32747;BME280;19118;50.860;13.662;2023-08-06T21:34:15;95734.53;;;15.36;100.00
32747;BME280;19118;50.860;13.662;2023-08-06T21:39:16;95738.78;;;15.32;100.00
32747;BME280;19118;50.860;13.662;2023-08-06T21:44:17;95733.63;;;15.63;100.00
32747;BME280;19118;50.860;13.662;2023-08-06T21:49:17;95739.88;;;15.94;100.00
32747;BME280;19118;50.860;13.662;2023-08-06T21:54:19;95738.53;;;15.96;100.00
32747;BME280;19118;50.860;13.662;2023-08-06T21:59:19;95725.00;;;15.51;100.00
32747;BME280;19118;50.860;13.662;2023-08-06T22:04:19;95735.34;;;15.37;100.00
32747;BME280;19118;50.860;13.662;2023-08-06T22:09:20;95730.84;;;15.48;100.00
32747;BME280;19118;50.860;13.662;2023-08-06T22:14:20;95733.97;;;15.29;100.00
32747;BME280;19118;50.860;13.662;2023-08-06T22:19:21;95740.84;;;15.20;100.00
32747;BME280;19118;50.860;13.662;2023-08-06T22:24:21;95737.91;;;15.69;100.00
32747;BME280;19118;50.860;13.662;2023-08-06T22:29:22;95739.38;;;15.44;100.00
32747;BME280;19118;50.860;13.662;2023-08-06T22:34:22;95740.84;;;15.72;100.00
32747;BME280;19118;50.860;13.662;2023-08-06T22:39:22;95753.81;;;15.59;100.00
32747;BME280;19118;50.860;13.662;2023-08-06T22:44:23;95740.09;;;15.77;100.00
32747;BME280;19118;50.860;13.662;2023-08-06T22:49:23;95731.66;;;15.48;100.00
32747;BME280;19118;50.860;13.662;2023-08-06T22:54:23;95733.78;;;15.46;100.00
32747;BME280;19118;50.860;13.662;2023-08-06T22:59:24;95741.56;;;15.53;100.00
32747;BME280;19118;50.860;13.662;2023-08-06T23:04:24;95746.91;;;15.58;100.00
32747;BME280;19118;50.860;13.662;2023-08-06T23:09:25;95747.59;;;15.38;100.00
32747;BME280;19118;50.860;13.662;2023-08-06T23:14:25;95743.03;;;15.33;100.00
32747;BME280;19118;50.860;13.662;2023-08-06T23:19:26;95748.78;;;15.15;100.00
32747;BME280;19118;50.860;13.662;2023-08-06T23:24:26;95754.63;;;15.12;100.00
32747;BME280;19118;50.860;13.662;2023-08-06T23:29:27;95746.81;;;14.95;100.00
32747;BME280;19118;50.860;13.662;2023-08-06T23:34:28;95751.78;;;15.24;100.00
32747;BME280;19118;50.860;13.662;2023-08-06T23:39:28;95741.00;;;15.03;100.00
32747;BME280;19118;50.860;13.662;2023-08-06T23:44:28;95734.16;;;14.80;100.00
32747;BME280;19118;50.860;13.662;2023-08-06T23:49:29;95738.00;;;14.95;100.00
32747;BME280;19118;50.860;13.662;2023-08-06T23:54:29;95727.00;;;14.81;100.00
32747;BME280;19118;50.860;13.662;2023-08-06T23:59:29;95726.53;;;14.89;100.00
